Nearby METAR Reports

 

KDVT - Phoenix/Deer Vly, Arizona, USA
Distance from station: SSE 14mi, 22km
Updated: 05/29/2020 2:53am
Clear
Clear
 Wind from calm
Wind: Calm
Temperature: 79°F , 26°C
Dew Point: 37°F , 3°C
Humidity: 23%
Barometer: 29.88 inHg , 1011.9 hPa
Clouds: Clear
Visibility: 10 miles , 16 km
2020/05/29 09:53 KDVT 290953Z AUTO 00000KT 10SM CLR 26/03 A2988 RMK AO2 SLP091 T02610028
KSDL - Scottsdale, Arizona, USA
Distance from station: SE 22mi, 35km
Updated: 05/29/2020 2:53am
Clear
Clear
 Wind from calm
Wind: Calm
Temperature: 84°F , 29°C
Dew Point: 39°F , 4°C
Humidity: 20%
Barometer: 29.90 inHg , 1012.5 hPa
Clouds: Clear
Visibility: 10 miles , 16 km
2020/05/29 09:53 KSDL 290953Z AUTO 00000KT 10SM CLR 29/04 A2990 RMK AO2 SLP092 T02940039
 
KGEU - Glendale, Arizona, USA
Distance from station: SSW 25mi, 41km
Updated: 05/28/2020 7:55pm
NOT Current
Few Clouds
Few Clouds
 Wind from S
Wind: S 9 mph , 15 km/h
Temperature: 100°F , 38°C
Dew Point: 32°F , 0°C
Humidity: 9%
Barometer: 29.81 inHg , 1009.5 hPa
Clouds: Few Clouds
Visibility: 10 miles , 16 km
Cloud details: Few Clouds 20000 ft
2020/05/29 02:55 KGEU 290255Z 19008KT 10SM FEW200 38/00 A2981 RMK LAST
KLUF - Luke Afb/Glendal, Arizona, USA
Distance from station: SSW 28mi, 45km
Updated: 05/29/2020 2:58am
Clear
Clear
 Wind from WNW
Wind: WNW 3 mph , 6 km/h
Temperature: 81°F , 27°C
Dew Point: 45°F , 7°C
Humidity: 28%
Barometer: 29.84 inHg , 1010.5 hPa
Clouds: Clear
Visibility: 10 miles , 16 km
2020/05/29 09:58 KLUF 290958Z AUTO 30003KT 10SM CLR 27/07 A2984 RMK AO2 SLP089 T02680067
 
KPHX - Phoenix/Sky Hrbr, Arizona, USA
Distance from station: SSE 31mi, 51km
Updated: 05/29/2020 2:51am
Clear
Clear
 Wind from calm
Wind: Calm
Temperature: 88°F , 31°C
Dew Point: 39°F , 4°C
Humidity: 18%
Barometer: 29.84 inHg , 1010.5 hPa
Clouds: Clear
Visibility: 10 miles , 16 km
2020/05/29 09:51 KPHX 290951Z 00000KT 10SM CLR 31/04 A2984 RMK AO2 SLP083 T03060039
KGYR - Goodyear Municip, Arizona, USA
Distance from station: SSW 34mi, 55km
Updated: 05/28/2020 8:47pm
NOT Current
Clear
Clear
 Wind from SW
Wind: SW 8 mph , 13 km/h
Temperature: 93°F , 34°C
Dew Point: 43°F , 6°C
Humidity: 17%
Barometer: 29.80 inHg , 1009.1 hPa
Clouds: Clear
Visibility: 10 miles , 16 km
2020/05/29 03:47 KGYR 290347Z 23007KT 10SM SKC 34/06 A2980 RMK LAST
 
KFFZ - Mesa/Falcon Fld, Arizona, USA
Distance from station: SE 37mi, 60km
Updated: 05/29/2020 2:54am
Clear
Clear
 Wind from NNE
Wind: NNE 3 mph , 6 km/h
Temperature: 84°F , 29°C
Dew Point: 37°F , 3°C
Humidity: 19%
Barometer: 29.88 inHg , 1011.9 hPa
Clouds: Clear
Visibility: 10 miles , 16 km
2020/05/29 09:54 KFFZ 290954Z AUTO 03003KT 10SM CLR 29/03 A2988 RMK AO2 SLP090 T02940033
KBXK - Buckeye, Arizona, USA
Distance from station: SW 45mi, 72km
Updated: 05/29/2020 3:15am
Clear
Clear
 Wind from N
Wind: N 6 mph , 9 km/h
Temperature: 75°F , 24°C
Dew Point: 34°F , 1°C
Humidity: 22%
Barometer: 29.87 inHg , 1011.5 hPa
Clouds: Clear
Visibility: 10 miles , 16 km
2020/05/29 10:15 KBXK 291015Z AUTO 01005KT 10SM CLR 24/01 A2987 RMK A01
 
KIWA - Chandler/Mesa, Arizona, USA
Distance from station: SE 49mi, 78km
Updated: 05/29/2020 3:15am
Clear
Clear
 Wind from SE
Wind: SE 7 mph , 11 km/h
Temperature: 75°F , 24°C
Dew Point: 41°F , 5°C
Humidity: 29%
Barometer: 29.90 inHg , 1012.5 hPa
Clouds: Clear
Visibility: 10 miles , 16 km
2020/05/29 10:15 KIWA 291015Z AUTO 13006KT 10SM CLR 24/05 A2990 RMK AO2 T02420049
KPAN - Payson, Arizona, USA
Distance from station: ENE 53mi, 85km
Updated: 05/29/2020 3:15am
Clear
Clear
 Wind from calm
Wind: Calm
Temperature: 66°F , 19°C
Dew Point: 30°F , -1°C
Humidity: 26%
Barometer: 30.19 inHg , 1022.4 hPa
Clouds: Clear
Visibility: 10 miles , 16 km
2020/05/29 10:15 KPAN 291015Z AUTO 00000KT 10SM CLR 19/M01 A3019 RMK AO2
 
KPRC - Prescott, Arizona, USA
Distance from station: NNW 56mi, 90km
Updated: 05/29/2020 2:53am
Clear
Clear
 Wind from S
Wind: S 7 mph , 11 km/h
Temperature: 61°F , 16°C
Dew Point: 37°F , 3°C
Humidity: 42%
Barometer: 30.18 inHg , 1022 hPa
Clouds: Clear
Visibility: 10 miles , 16 km
2020/05/29 09:53 KPRC 290953Z AUTO 19006KT 10SM CLR 16/03 A3018 RMK AO2 SLP132 T01560028
KCGZ - Casa Granda, Arizona, USA
Distance from station: SSE 67mi, 109km
Updated: 05/29/2020 2:56am
Clear
Clear
 Wind from E
Wind: E 3 mph , 6 km/h
Temperature: 75°F , 24°C
Dew Point: 37°F , 3°C
Humidity: 25%
Barometer: 29.90 inHg , 1012.5 hPa
Clouds: Clear
Visibility: 9 miles , 14 km
2020/05/29 09:56 KCGZ 290956Z AUTO 10003KT 9SM CLR 24/03 A2990 RMK AO2 SLP107 T02440033
 
KSEZ - Sedona, Arizona, USA
Distance from station: NNE 70mi, 113km
Updated: 05/29/2020 3:15am
Clear
Clear
 Wind from NNE
Wind: NNE 13 mph , 20 km/h
Temperature: 72°F , 22°C
Dew Point: 32°F , 0°C
Humidity: 23%
Barometer: 30.15 inHg , 1021 hPa
Clouds: Clear
Visibility: 10 miles , 16 km
2020/05/29 10:15 KSEZ 291015Z AUTO 03011KT 10SM CLR 22/00 A3015 RMK AO2
KGXF - Gila Bend (aaf), Arizona, USA
Distance from station: SSW 77mi, 124km
Updated: 05/29/2020 2:58am
Clear
Clear
 Wind from SSE
Wind: SSE 7 mph , 11 km/h
Temperature: 79°F , 26°C
Dew Point: 32°F , 0°C
Humidity: 18%
Barometer: 29.84 inHg , 1010.5 hPa
Clouds: Clear
Visibility: 10 miles , 16 km
2020/05/29 09:58 KGXF 290958Z AUTO 16006KT 10SM CLR 26/00 A2984 RMK AO2 SLP090 T02601001
 
KP08 - Coolidge Muni, Arizona, USA
Distance from station: SSE 77mi, 124km
Updated: 04/02/2020 5:45am
NOT Current

 
2020/04/02 12:45 KP08 021245Z AUTO RMK AO2 PNO PWINO TSNO
KFLG - Flagstaff, Arizona, USA
Distance from station: NNE 91mi, 146km
Updated: 05/29/2020 2:57am
Clear
Clear
 Wind from SW
Wind: SW 3 mph , 6 km/h
Temperature: 52°F , 11°C
Dew Point: 30°F , -1°C
Humidity: 44%
Barometer: 30.33 inHg , 1027.1 hPa
Clouds: Clear
Visibility: 10 miles , 16 km
2020/05/29 09:57 KFLG 290957Z AUTO 22003KT 10SM CLR 11/M01 A3033 RMK AO2 SLP166 T01061011
 
KCMR - Williams Clark, Arizona, USA
Distance from station: N 98mi, 158km
Updated: 05/29/2020 3:15am
Clear
Clear
 Wind from S
Wind: S 9 mph , 15 km/h
Temperature: 52°F , 11°C
Dew Point: 32°F , 0°C
Humidity: 47%
Barometer: 30.31 inHg , 1026.4 hPa
Clouds: Clear
Visibility: 10 miles , 16 km
2020/05/29 10:15 KCMR 291015Z AUTO 17008KT 10SM CLR 11/M00 A3031 RMK AO2